This is the latest recevied weather packets stored in our database for station/object DG0PX-12. If no packets are shown the sender has not sent any weather packets the latest 10 day(s).
| Time | Temp. | Humidity | Pressure | Rain* | Wind** | Luminosity | Snow |
|---|---|---|---|---|---|---|---|
| 1777509857 | 5° C | 37% | 957.4 hPa | - | - | - | - |
| 1777508957 | 5.56° C | 36% | 957.3 hPa | - | - | - | - |
| 1777508057 | 5.56° C | 36% | 957.4 hPa | - | - | - | - |
| 1777507157 | 6.11° C | 38% | 957.2 hPa | - | - | - | - |
| 1777506257 | 6.11° C | 40% | 957.2 hPa | - | - | - | - |
| 1777505356 | 7.22° C | 41% | 957.1 hPa | - | - | - | - |
| 1777504456 | 7.22° C | 42% | 957 hPa | - | - | - | - |
| 1777503556 | 7.78° C | 42% | 956.7 hPa | - | - | - | - |
| 1777502656 | 7.22° C | 43% | 956.7 hPa | - | - | - | - |
| 1777501756 | 8.33° C | 41% | 956.7 hPa | - | - | - | - |
| 1777500856 | 8.89° C | 40% | 956.6 hPa | - | - | - | - |
| 1777499956 | 8.33° C | 40% | 956.5 hPa | - | - | - | - |
| 1777499056 | 8.89° C | 39% | 956.5 hPa | - | - | - | - |
| 1777498155 | 8.89° C | 39% | 956.4 hPa | - | - | - | - |
| 1777497255 | 9.44° C | 37% | 956.3 hPa | - | - | - | - |
| 1777496355 | 10° C | 36% | 956.1 hPa | - | - | - | - |
| 1777495455 | 10° C | 37% | 955.9 hPa | - | - | - | - |
| 1777494555 | 8.89° C | 43% | 955.8 hPa | - | - | - | - |
| 1777493654 | 9.44° C | 45% | 955.6 hPa | - | - | - | - |
| 1777492754 | 10.56° C | 43% | 955.4 hPa | - | - | - | - |
| 1777491854 | 11.11° C | 37% | 955.4 hPa | - | - | - | - |
| 1777490954 | 11.67° C | 38% | 955.1 hPa | - | - | - | - |
| 1777490054 | 11.67° C | 41% | 954.9 hPa | - | - | - | - |
| 1777489154 | 12.78° C | 38% | 954.7 hPa | - | - | - | - |
| 1777488254 | 13.33° C | 35% | 954.5 hPa | - | - | - | - |
* Rain since midnight (hover to see other rain measurements)
** Current wind speed in m/s (hover to see current wind gust speed)